sensor_id;sensor_type;location;lat;lon;timestamp;P1;durP1;ratioP1;P2;durP2;ratioP2
19285;SDS011;9776;50.798;6.430;2023-01-31T00:01:03;3.97;;;2.67;;
19285;SDS011;9776;50.798;6.430;2023-01-31T00:03:31;5.13;;;2.58;;
19285;SDS011;9776;50.798;6.430;2023-01-31T00:06:07;3.97;;;2.63;;
19285;SDS011;9776;50.798;6.430;2023-01-31T00:08:35;2.70;;;2.17;;
19285;SDS011;9776;50.798;6.430;2023-01-31T00:11:03;5.22;;;2.83;;
19285;SDS011;9776;50.798;6.430;2023-01-31T00:13:30;4.30;;;2.60;;
19285;SDS011;9776;50.798;6.430;2023-01-31T00:15:57;3.67;;;2.78;;
19285;SDS011;9776;50.798;6.430;2023-01-31T00:18:24;4.75;;;2.78;;
19285;SDS011;9776;50.798;6.430;2023-01-31T00:20:51;3.85;;;2.35;;
19285;SDS011;9776;50.798;6.430;2023-01-31T00:23:18;3.55;;;2.60;;
19285;SDS011;9776;50.798;6.430;2023-01-31T00:25:44;3.60;;;2.55;;
19285;SDS011;9776;50.798;6.430;2023-01-31T00:28:13;5.30;;;2.72;;
19285;SDS011;9776;50.798;6.430;2023-01-31T00:30:39;3.95;;;2.53;;
19285;SDS011;9776;50.798;6.430;2023-01-31T00:33:06;5.45;;;2.58;;
19285;SDS011;9776;50.798;6.430;2023-01-31T00:35:33;3.45;;;2.30;;
19285;SDS011;9776;50.798;6.430;2023-01-31T00:38:03;3.22;;;2.03;;
19285;SDS011;9776;50.798;6.430;2023-01-31T00:40:29;2.85;;;2.58;;
19285;SDS011;9776;50.798;6.430;2023-01-31T00:42:56;4.88;;;2.63;;
19285;SDS011;9776;50.798;6.430;2023-01-31T00:45:24;5.10;;;2.80;;
19285;SDS011;9776;50.798;6.430;2023-01-31T00:47:51;5.05;;;2.65;;
19285;SDS011;9776;50.798;6.430;2023-01-31T00:50:18;4.40;;;2.85;;
19285;SDS011;9776;50.798;6.430;2023-01-31T00:52:44;5.85;;;3.10;;
19285;SDS011;9776;50.798;6.430;2023-01-31T00:55:11;4.35;;;2.40;;
19285;SDS011;9776;50.798;6.430;2023-01-31T00:57:38;3.85;;;2.67;;
19285;SDS011;9776;50.798;6.430;2023-01-31T01:00:05;3.17;;;2.45;;
19285;SDS011;9776;50.798;6.430;2023-01-31T01:02:34;4.65;;;2.80;;
19285;SDS011;9776;50.798;6.430;2023-01-31T01:05:01;3.63;;;2.47;;
19285;SDS011;9776;50.798;6.430;2023-01-31T01:07:27;3.85;;;2.55;;
19285;SDS011;9776;50.798;6.430;2023-01-31T01:09:54;3.90;;;2.65;;
19285;SDS011;9776;50.798;6.430;2023-01-31T01:12:22;5.45;;;2.78;;
19285;SDS011;9776;50.798;6.430;2023-01-31T01:14:49;2.85;;;2.25;;
19285;SDS011;9776;50.798;6.430;2023-01-31T01:17:15;3.78;;;2.40;;
19285;SDS011;9776;50.798;6.430;2023-01-31T01:19:43;3.22;;;2.50;;
19285;SDS011;9776;50.798;6.430;2023-01-31T01:22:10;4.93;;;2.75;;
19285;SDS011;9776;50.798;6.430;2023-01-31T01:24:40;3.22;;;2.53;;
19285;SDS011;9776;50.798;6.430;2023-01-31T01:27:07;2.50;;;2.30;;
19285;SDS011;9776;50.798;6.430;2023-01-31T01:29:33;3.80;;;2.65;;
19285;SDS011;9776;50.798;6.430;2023-01-31T01:32:00;3.00;;;2.22;;
19285;SDS011;9776;50.798;6.430;2023-01-31T01:34:27;5.03;;;3.22;;
19285;SDS011;9776;50.798;6.430;2023-01-31T01:36:57;5.53;;;2.55;;
19285;SDS011;9776;50.798;6.430;2023-01-31T01:39:24;4.57;;;2.70;;
19285;SDS011;9776;50.798;6.430;2023-01-31T01:41:54;3.67;;;2.75;;
19285;SDS011;9776;50.798;6.430;2023-01-31T01:44:41;3.28;;;2.78;;
19285;SDS011;9776;50.798;6.430;2023-01-31T01:47:11;4.40;;;2.90;;
19285;SDS011;9776;50.798;6.430;2023-01-31T01:49:43;3.50;;;2.50;;
19285;SDS011;9776;50.798;6.430;2023-01-31T01:52:16;2.88;;;2.08;;
19285;SDS011;9776;50.798;6.430;2023-01-31T01:54:45;4.85;;;2.90;;
19285;SDS011;9776;50.798;6.430;2023-01-31T01:57:16;4.72;;;2.92;;
19285;SDS011;9776;50.798;6.430;2023-01-31T01:59:47;4.38;;;3.17;;
19285;SDS011;9776;50.798;6.430;2023-01-31T02:02:17;2.97;;;2.53;;
19285;SDS011;9776;50.798;6.430;2023-01-31T02:04:45;3.58;;;2.75;;
19285;SDS011;9776;50.798;6.430;2023-01-31T02:07:16;2.95;;;2.70;;
19285;SDS011;9776;50.798;6.430;2023-01-31T02:09:45;5.82;;;4.15;;
19285;SDS011;9776;50.798;6.430;2023-01-31T02:12:18;3.80;;;2.70;;
19285;SDS011;9776;50.798;6.430;2023-01-31T02:14:46;3.88;;;2.78;;
19285;SDS011;9776;50.798;6.430;2023-01-31T02:17:14;5.22;;;3.45;;
19285;SDS011;9776;50.798;6.430;2023-01-31T02:19:45;4.32;;;2.92;;
19285;SDS011;9776;50.798;6.430;2023-01-31T02:22:23;4.70;;;2.97;;
19285;SDS011;9776;50.798;6.430;2023-01-31T02:28:20;4.65;;;2.95;;
19285;SDS011;9776;50.798;6.430;2023-01-31T02:34:35;3.65;;;3.05;;
19285;SDS011;9776;50.798;6.430;2023-01-31T02:37:11;3.17;;;2.60;;
19285;SDS011;9776;50.798;6.430;2023-01-31T02:39:50;4.93;;;3.15;;
19285;SDS011;9776;50.798;6.430;2023-01-31T02:42:27;4.75;;;2.90;;
19285;SDS011;9776;50.798;6.430;2023-01-31T02:45:02;4.30;;;2.70;;
19285;SDS011;9776;50.798;6.430;2023-01-31T02:47:40;3.50;;;2.70;;
19285;SDS011;9776;50.798;6.430;2023-01-31T02:50:28;5.93;;;3.10;;
19285;SDS011;9776;50.798;6.430;2023-01-31T02:53:01;2.80;;;2.60;;
19285;SDS011;9776;50.798;6.430;2023-01-31T02:55:34;4.28;;;2.80;;
19285;SDS011;9776;50.798;6.430;2023-01-31T02:58:20;4.53;;;3.00;;
19285;SDS011;9776;50.798;6.430;2023-01-31T03:00:50;4.38;;;3.10;;
19285;SDS011;9776;50.798;6.430;2023-01-31T03:03:22;3.45;;;3.10;;
19285;SDS011;9776;50.798;6.430;2023-01-31T03:08:55;3.67;;;3.17;;
19285;SDS011;9776;50.798;6.430;2023-01-31T03:11:26;6.72;;;4.95;;
19285;SDS011;9776;50.798;6.430;2023-01-31T03:14:02;3.55;;;3.25;;
19285;SDS011;9776;50.798;6.430;2023-01-31T03:16:36;6.00;;;3.85;;
19285;SDS011;9776;50.798;6.430;2023-01-31T03:19:30;4.35;;;3.60;;
19285;SDS011;9776;50.798;6.430;2023-01-31T03:22:05;5.97;;;4.10;;
19285;SDS011;9776;50.798;6.430;2023-01-31T03:24:37;5.15;;;4.20;;
19285;SDS011;9776;50.798;6.430;2023-01-31T03:27:05;5.05;;;3.90;;
19285;SDS011;9776;50.798;6.430;2023-01-31T03:29:33;4.20;;;3.72;;
19285;SDS011;9776;50.798;6.430;2023-01-31T03:32:03;6.22;;;4.25;;
19285;SDS011;9776;50.798;6.430;2023-01-31T03:34:33;5.57;;;3.78;;
19285;SDS011;9776;50.798;6.430;2023-01-31T03:37:02;6.20;;;4.28;;
19285;SDS011;9776;50.798;6.430;2023-01-31T03:39:39;4.82;;;3.95;;
19285;SDS011;9776;50.798;6.430;2023-01-31T03:42:11;5.43;;;3.75;;
19285;SDS011;9776;50.798;6.430;2023-01-31T03:44:44;5.70;;;3.60;;
19285;SDS011;9776;50.798;6.430;2023-01-31T03:47:18;7.43;;;4.38;;
19285;SDS011;9776;50.798;6.430;2023-01-31T03:49:50;6.25;;;4.00;;
19285;SDS011;9776;50.798;6.430;2023-01-31T03:52:19;5.22;;;3.80;;
19285;SDS011;9776;50.798;6.430;2023-01-31T03:54:54;5.38;;;4.38;;
19285;SDS011;9776;50.798;6.430;2023-01-31T03:57:28;6.97;;;4.32;;
19285;SDS011;9776;50.798;6.430;2023-01-31T03:59:58;5.53;;;4.32;;
19285;SDS011;9776;50.798;6.430;2023-01-31T04:02:29;6.35;;;4.03;;
19285;SDS011;9776;50.798;6.430;2023-01-31T04:05:01;5.68;;;3.83;;
19285;SDS011;9776;50.798;6.430;2023-01-31T04:07:32;5.80;;;3.80;;
19285;SDS011;9776;50.798;6.430;2023-01-31T04:10:00;4.80;;;3.90;;
19285;SDS011;9776;50.798;6.430;2023-01-31T04:12:28;5.28;;;3.75;;
19285;SDS011;9776;50.798;6.430;2023-01-31T04:14:55;4.45;;;3.80;;
19285;SDS011;9776;50.798;6.430;2023-01-31T04:17:22;5.10;;;3.60;;
19285;SDS011;9776;50.798;6.430;2023-01-31T04:19:49;5.10;;;3.55;;
19285;SDS011;9776;50.798;6.430;2023-01-31T04:22:16;6.22;;;4.03;;
19285;SDS011;9776;50.798;6.430;2023-01-31T04:24:42;5.13;;;3.80;;
19285;SDS011;9776;50.798;6.430;2023-01-31T04:27:11;4.78;;;3.92;;
19285;SDS011;9776;50.798;6.430;2023-01-31T04:29:37;5.43;;;3.60;;
19285;SDS011;9776;50.798;6.430;2023-01-31T04:32:05;4.90;;;3.95;;
19285;SDS011;9776;50.798;6.430;2023-01-31T04:34:31;5.60;;;3.67;;
19285;SDS011;9776;50.798;6.430;2023-01-31T04:36:58;5.18;;;3.55;;
19285;SDS011;9776;50.798;6.430;2023-01-31T04:39:25;4.63;;;4.22;;
19285;SDS011;9776;50.798;6.430;2023-01-31T04:41:52;3.72;;;3.30;;
19285;SDS011;9776;50.798;6.430;2023-01-31T04:44:20;5.22;;;3.30;;
19285;SDS011;9776;50.798;6.430;2023-01-31T04:46:47;4.82;;;3.22;;
19285;SDS011;9776;50.798;6.430;2023-01-31T04:49:14;4.40;;;3.20;;
19285;SDS011;9776;50.798;6.430;2023-01-31T04:51:41;4.65;;;3.45;;
19285;SDS011;9776;50.798;6.430;2023-01-31T04:54:08;3.38;;;3.05;;
19285;SDS011;9776;50.798;6.430;2023-01-31T04:56:34;4.78;;;3.38;;
19285;SDS011;9776;50.798;6.430;2023-01-31T04:59:01;4.03;;;3.35;;
19285;SDS011;9776;50.798;6.430;2023-01-31T05:01:30;4.35;;;3.95;;
19285;SDS011;9776;50.798;6.430;2023-01-31T05:03:56;4.25;;;3.58;;
19285;SDS011;9776;50.798;6.430;2023-01-31T05:06:23;3.70;;;3.17;;
19285;SDS011;9776;50.798;6.430;2023-01-31T05:08:50;5.47;;;3.53;;
19285;SDS011;9776;50.798;6.430;2023-01-31T05:11:18;4.30;;;2.92;;
19285;SDS011;9776;50.798;6.430;2023-01-31T05:13:45;3.38;;;2.88;;
19285;SDS011;9776;50.798;6.430;2023-01-31T05:16:12;4.22;;;3.08;;
19285;SDS011;9776;50.798;6.430;2023-01-31T05:18:40;4.78;;;3.90;;
19285;SDS011;9776;50.798;6.430;2023-01-31T05:21:07;3.47;;;3.17;;
19285;SDS011;9776;50.798;6.430;2023-01-31T05:23:34;4.15;;;3.30;;
19285;SDS011;9776;50.798;6.430;2023-01-31T05:26:01;5.18;;;3.10;;
19285;SDS011;9776;50.798;6.430;2023-01-31T05:28:27;5.72;;;3.38;;
19285;SDS011;9776;50.798;6.430;2023-01-31T05:31:00;3.83;;;2.80;;
19285;SDS011;9776;50.798;6.430;2023-01-31T05:33:27;6.22;;;3.53;;
19285;SDS011;9776;50.798;6.430;2023-01-31T05:35:57;6.20;;;3.55;;
19285;SDS011;9776;50.798;6.430;2023-01-31T05:38:24;3.15;;;2.80;;
19285;SDS011;9776;50.798;6.430;2023-01-31T05:40:50;3.28;;;2.92;;
19285;SDS011;9776;50.798;6.430;2023-01-31T05:43:17;5.07;;;3.13;;
19285;SDS011;9776;50.798;6.430;2023-01-31T05:45:46;5.43;;;3.53;;
19285;SDS011;9776;50.798;6.430;2023-01-31T05:48:13;4.07;;;2.95;;
19285;SDS011;9776;50.798;6.430;2023-01-31T05:50:40;3.67;;;2.72;;
19285;SDS011;9776;50.798;6.430;2023-01-31T05:53:08;3.67;;;3.13;;
19285;SDS011;9776;50.798;6.430;2023-01-31T05:55:35;3.95;;;3.05;;
19285;SDS011;9776;50.798;6.430;2023-01-31T05:58:02;4.45;;;3.20;;
19285;SDS011;9776;50.798;6.430;2023-01-31T06:00:28;3.53;;;3.00;;
19285;SDS011;9776;50.798;6.430;2023-01-31T06:02:56;5.00;;;3.28;;
19285;SDS011;9776;50.798;6.430;2023-01-31T06:05:23;4.20;;;2.78;;
19285;SDS011;9776;50.798;6.430;2023-01-31T06:07:50;3.25;;;2.72;;
19285;SDS011;9776;50.798;6.430;2023-01-31T06:10:18;4.40;;;3.15;;
19285;SDS011;9776;50.798;6.430;2023-01-31T06:12:45;4.43;;;2.90;;
19285;SDS011;9776;50.798;6.430;2023-01-31T06:15:11;4.65;;;2.97;;
19285;SDS011;9776;50.798;6.430;2023-01-31T06:17:38;4.22;;;2.65;;
19285;SDS011;9776;50.798;6.430;2023-01-31T06:20:05;4.63;;;2.75;;
19285;SDS011;9776;50.798;6.430;2023-01-31T06:22:32;3.42;;;2.45;;
19285;SDS011;9776;50.798;6.430;2023-01-31T06:24:59;4.00;;;2.85;;
19285;SDS011;9776;50.798;6.430;2023-01-31T06:27:29;3.08;;;2.42;;
19285;SDS011;9776;50.798;6.430;2023-01-31T06:29:56;4.35;;;3.70;;
19285;SDS011;9776;50.798;6.430;2023-01-31T06:32:23;3.65;;;2.63;;
19285;SDS011;9776;50.798;6.430;2023-01-31T06:34:50;3.30;;;2.95;;
19285;SDS011;9776;50.798;6.430;2023-01-31T06:37:16;4.35;;;2.92;;
19285;SDS011;9776;50.798;6.430;2023-01-31T06:39:43;3.58;;;2.60;;
19285;SDS011;9776;50.798;6.430;2023-01-31T06:42:10;4.05;;;2.95;;
19285;SDS011;9776;50.798;6.430;2023-01-31T06:44:38;2.50;;;2.30;;
19285;SDS011;9776;50.798;6.430;2023-01-31T06:47:05;4.32;;;2.70;;
19285;SDS011;9776;50.798;6.430;2023-01-31T06:49:31;3.05;;;2.60;;
19285;SDS011;9776;50.798;6.430;2023-01-31T06:51:58;3.33;;;2.40;;
19285;SDS011;9776;50.798;6.430;2023-01-31T06:54:25;3.58;;;2.80;;
19285;SDS011;9776;50.798;6.430;2023-01-31T06:56:51;5.50;;;3.15;;
19285;SDS011;9776;50.798;6.430;2023-01-31T06:59:18;3.17;;;2.55;;
19285;SDS011;9776;50.798;6.430;2023-01-31T07:01:46;4.38;;;2.47;;
19285;SDS011;9776;50.798;6.430;2023-01-31T07:04:13;3.65;;;2.60;;
19285;SDS011;9776;50.798;6.430;2023-01-31T07:06:40;2.33;;;2.13;;
19285;SDS011;9776;50.798;6.430;2023-01-31T07:09:06;3.28;;;2.63;;
19285;SDS011;9776;50.798;6.430;2023-01-31T07:11:33;3.25;;;2.40;;
19285;SDS011;9776;50.798;6.430;2023-01-31T07:14:01;2.67;;;2.30;;
19285;SDS011;9776;50.798;6.430;2023-01-31T07:16:28;4.43;;;2.83;;
19285;SDS011;9776;50.798;6.430;2023-01-31T07:18:56;4.03;;;2.80;;
19285;SDS011;9776;50.798;6.430;2023-01-31T07:21:23;3.15;;;2.45;;
19285;SDS011;9776;50.798;6.430;2023-01-31T07:23:50;4.15;;;2.78;;
19285;SDS011;9776;50.798;6.430;2023-01-31T07:26:17;3.92;;;2.70;;
19285;SDS011;9776;50.798;6.430;2023-01-31T07:28:44;2.35;;;2.10;;
19285;SDS011;9776;50.798;6.430;2023-01-31T07:31:11;3.42;;;2.65;;
19285;SDS011;9776;50.798;6.430;2023-01-31T07:33:39;4.28;;;2.97;;
19285;SDS011;9776;50.798;6.430;2023-01-31T07:36:09;4.35;;;2.55;;
19285;SDS011;9776;50.798;6.430;2023-01-31T07:38:38;4.60;;;2.65;;
19285;SDS011;9776;50.798;6.430;2023-01-31T07:41:05;3.45;;;2.83;;
19285;SDS011;9776;50.798;6.430;2023-01-31T07:43:33;3.92;;;2.85;;
19285;SDS011;9776;50.798;6.430;2023-01-31T07:46:00;4.07;;;2.60;;
19285;SDS011;9776;50.798;6.430;2023-01-31T07:48:27;3.20;;;2.65;;
19285;SDS011;9776;50.798;6.430;2023-01-31T07:50:57;3.47;;;2.50;;
19285;SDS011;9776;50.798;6.430;2023-01-31T07:53:27;3.47;;;2.55;;
19285;SDS011;9776;50.798;6.430;2023-01-31T07:56:03;3.42;;;2.78;;
19285;SDS011;9776;50.798;6.430;2023-01-31T07:58:32;4.90;;;2.97;;
19285;SDS011;9776;50.798;6.430;2023-01-31T08:01:00;3.40;;;2.72;;
19285;SDS011;9776;50.798;6.430;2023-01-31T08:03:44;4.35;;;2.58;;
19285;SDS011;9776;50.798;6.430;2023-01-31T08:06:11;4.40;;;2.92;;
19285;SDS011;9776;50.798;6.430;2023-01-31T08:08:40;3.30;;;2.75;;
19285;SDS011;9776;50.798;6.430;2023-01-31T08:11:07;4.43;;;2.60;;
19285;SDS011;9776;50.798;6.430;2023-01-31T08:13:35;4.00;;;2.60;;
19285;SDS011;9776;50.798;6.430;2023-01-31T08:16:03;3.35;;;2.40;;
19285;SDS011;9776;50.798;6.430;2023-01-31T08:18:31;4.00;;;2.30;;
19285;SDS011;9776;50.798;6.430;2023-01-31T08:20:58;4.20;;;3.20;;
19285;SDS011;9776;50.798;6.430;2023-01-31T08:23:25;2.70;;;2.33;;
19285;SDS011;9776;50.798;6.430;2023-01-31T08:25:59;3.40;;;2.65;;
19285;SDS011;9776;50.798;6.430;2023-01-31T08:28:26;4.82;;;3.15;;
19285;SDS011;9776;50.798;6.430;2023-01-31T08:30:53;4.30;;;2.58;;
19285;SDS011;9776;50.798;6.430;2023-01-31T08:33:20;3.15;;;2.17;;
19285;SDS011;9776;50.798;6.430;2023-01-31T08:35:47;3.05;;;2.35;;
19285;SDS011;9776;50.798;6.430;2023-01-31T08:38:14;2.97;;;2.50;;
19285;SDS011;9776;50.798;6.430;2023-01-31T08:40:41;4.03;;;2.85;;
19285;SDS011;9776;50.798;6.430;2023-01-31T08:43:09;4.13;;;2.90;;
19285;SDS011;9776;50.798;6.430;2023-01-31T08:45:36;3.97;;;2.60;;
19285;SDS011;9776;50.798;6.430;2023-01-31T08:48:03;2.60;;;2.35;;
19285;SDS011;9776;50.798;6.430;2023-01-31T08:50:30;4.13;;;2.30;;
19285;SDS011;9776;50.798;6.430;2023-01-31T08:52:58;3.58;;;3.05;;
19285;SDS011;9776;50.798;6.430;2023-01-31T08:55:26;3.83;;;3.17;;
19285;SDS011;9776;50.798;6.430;2023-01-31T08:57:53;3.42;;;2.53;;
19285;SDS011;9776;50.798;6.430;2023-01-31T09:00:22;3.30;;;2.83;;
19285;SDS011;9776;50.798;6.430;2023-01-31T09:02:53;2.85;;;2.55;;
19285;SDS011;9776;50.798;6.430;2023-01-31T09:05:21;3.97;;;2.83;;
19285;SDS011;9776;50.798;6.430;2023-01-31T09:07:49;3.92;;;2.28;;
19285;SDS011;9776;50.798;6.430;2023-01-31T09:10:16;4.25;;;2.97;;
19285;SDS011;9776;50.798;6.430;2023-01-31T09:12:43;3.97;;;3.08;;
19285;SDS011;9776;50.798;6.430;2023-01-31T09:15:10;6.22;;;3.10;;
19285;SDS011;9776;50.798;6.430;2023-01-31T09:17:38;3.20;;;2.80;;
19285;SDS011;9776;50.798;6.430;2023-01-31T09:20:06;5.70;;;2.97;;
19285;SDS011;9776;50.798;6.430;2023-01-31T09:22:34;5.55;;;3.20;;
19285;SDS011;9776;50.798;6.430;2023-01-31T09:25:01;3.28;;;2.53;;
19285;SDS011;9776;50.798;6.430;2023-01-31T09:27:28;3.70;;;2.80;;
19285;SDS011;9776;50.798;6.430;2023-01-31T09:29:56;5.35;;;3.33;;
19285;SDS011;9776;50.798;6.430;2023-01-31T09:32:23;3.85;;;2.88;;
19285;SDS011;9776;50.798;6.430;2023-01-31T09:34:51;3.60;;;2.88;;
19285;SDS011;9776;50.798;6.430;2023-01-31T09:37:17;3.17;;;2.58;;
19285;SDS011;9776;50.798;6.430;2023-01-31T09:39:44;3.70;;;2.80;;
19285;SDS011;9776;50.798;6.430;2023-01-31T09:42:14;3.08;;;2.72;;
19285;SDS011;9776;50.798;6.430;2023-01-31T09:44:49;3.40;;;2.78;;
19285;SDS011;9776;50.798;6.430;2023-01-31T09:47:26;2.83;;;2.53;;
19285;SDS011;9776;50.798;6.430;2023-01-31T09:49:58;4.30;;;2.70;;
19285;SDS011;9776;50.798;6.430;2023-01-31T09:52:29;4.18;;;2.60;;
19285;SDS011;9776;50.798;6.430;2023-01-31T09:54:56;3.30;;;2.80;;
19285;SDS011;9776;50.798;6.430;2023-01-31T09:57:26;3.03;;;2.55;;
19285;SDS011;9776;50.798;6.430;2023-01-31T10:00:07;2.92;;;2.45;;
19285;SDS011;9776;50.798;6.430;2023-01-31T10:02:46;3.80;;;2.80;;
19285;SDS011;9776;50.798;6.430;2023-01-31T10:05:26;4.65;;;3.10;;
19285;SDS011;9776;50.798;6.430;2023-01-31T10:08:00;4.53;;;3.50;;
19285;SDS011;9776;50.798;6.430;2023-01-31T10:10:35;4.53;;;3.22;;
19285;SDS011;9776;50.798;6.430;2023-01-31T10:13:04;3.72;;;2.90;;
19285;SDS011;9776;50.798;6.430;2023-01-31T10:15:38;4.95;;;2.92;;
19285;SDS011;9776;50.798;6.430;2023-01-31T10:18:09;3.88;;;3.30;;
19285;SDS011;9776;50.798;6.430;2023-01-31T10:20:43;3.25;;;2.95;;
19285;SDS011;9776;50.798;6.430;2023-01-31T10:23:15;4.07;;;2.75;;
19285;SDS011;9776;50.798;6.430;2023-01-31T10:25:46;4.57;;;2.95;;
19285;SDS011;9776;50.798;6.430;2023-01-31T10:28:19;3.92;;;2.80;;
19285;SDS011;9776;50.798;6.430;2023-01-31T10:30:50;4.13;;;2.95;;
19285;SDS011;9776;50.798;6.430;2023-01-31T10:33:25;4.00;;;3.20;;
19285;SDS011;9776;50.798;6.430;2023-01-31T10:36:01;3.30;;;2.78;;
19285;SDS011;9776;50.798;6.430;2023-01-31T10:38:35;3.58;;;2.70;;
19285;SDS011;9776;50.798;6.430;2023-01-31T10:41:10;3.72;;;3.17;;
19285;SDS011;9776;50.798;6.430;2023-01-31T10:43:42;4.18;;;3.00;;
19285;SDS011;9776;50.798;6.430;2023-01-31T10:46:15;5.03;;;3.60;;
19285;SDS011;9776;50.798;6.430;2023-01-31T10:48:42;2.92;;;2.70;;
19285;SDS011;9776;50.798;6.430;2023-01-31T10:51:16;3.75;;;3.00;;
19285;SDS011;9776;50.798;6.430;2023-01-31T10:53:56;3.05;;;2.75;;
19285;SDS011;9776;50.798;6.430;2023-01-31T10:56:37;3.90;;;3.10;;
19285;SDS011;9776;50.798;6.430;2023-01-31T10:59:10;4.25;;;2.90;;
19285;SDS011;9776;50.798;6.430;2023-01-31T11:01:43;3.35;;;3.05;;
19285;SDS011;9776;50.798;6.430;2023-01-31T11:04:18;3.78;;;3.00;;
19285;SDS011;9776;50.798;6.430;2023-01-31T11:06:50;3.42;;;2.67;;
19285;SDS011;9776;50.798;6.430;2023-01-31T11:09:17;2.97;;;2.42;;
19285;SDS011;9776;50.798;6.430;2023-01-31T11:11:53;3.05;;;2.50;;
19285;SDS011;9776;50.798;6.430;2023-01-31T11:14:21;3.03;;;2.80;;
19285;SDS011;9776;50.798;6.430;2023-01-31T11:16:47;3.88;;;2.70;;
19285;SDS011;9776;50.798;6.430;2023-01-31T11:19:22;3.70;;;2.85;;
19285;SDS011;9776;50.798;6.430;2023-01-31T11:21:56;3.15;;;2.63;;
19285;SDS011;9776;50.798;6.430;2023-01-31T11:24:23;3.63;;;3.13;;
19285;SDS011;9776;50.798;6.430;2023-01-31T11:26:54;4.35;;;2.72;;
19285;SDS011;9776;50.798;6.430;2023-01-31T11:29:26;2.97;;;2.65;;
19285;SDS011;9776;50.798;6.430;2023-01-31T11:31:54;2.63;;;2.42;;
19285;SDS011;9776;50.798;6.430;2023-01-31T11:34:24;3.33;;;3.03;;
19285;SDS011;9776;50.798;6.430;2023-01-31T11:36:54;3.83;;;2.75;;
19285;SDS011;9776;50.798;6.430;2023-01-31T11:39:31;2.95;;;2.45;;
19285;SDS011;9776;50.798;6.430;2023-01-31T11:42:06;2.70;;;2.42;;
19285;SDS011;9776;50.798;6.430;2023-01-31T11:44:51;3.63;;;2.92;;
19285;SDS011;9776;50.798;6.430;2023-01-31T11:47:21;2.90;;;2.60;;
19285;SDS011;9776;50.798;6.430;2023-01-31T11:49:52;2.95;;;2.17;;
19285;SDS011;9776;50.798;6.430;2023-01-31T11:52:21;2.42;;;2.22;;
19285;SDS011;9776;50.798;6.430;2023-01-31T11:54:55;2.22;;;2.00;;
19285;SDS011;9776;50.798;6.430;2023-01-31T11:57:25;2.40;;;2.20;;
19285;SDS011;9776;50.798;6.430;2023-01-31T11:59:54;2.42;;;2.22;;
19285;SDS011;9776;50.798;6.430;2023-01-31T12:02:25;2.30;;;2.10;;
19285;SDS011;9776;50.798;6.430;2023-01-31T12:04:57;2.15;;;1.95;;
19285;SDS011;9776;50.798;6.430;2023-01-31T12:07:30;2.60;;;2.40;;
19285;SDS011;9776;50.798;6.430;2023-01-31T12:10:16;1.90;;;1.80;;
19285;SDS011;9776;50.798;6.430;2023-01-31T12:12:51;2.58;;;2.30;;
19285;SDS011;9776;50.798;6.430;2023-01-31T12:15:18;2.40;;;1.77;;
19285;SDS011;9776;50.798;6.430;2023-01-31T12:17:45;1.83;;;1.73;;
19285;SDS011;9776;50.798;6.430;2023-01-31T12:20:20;2.10;;;1.90;;
19285;SDS011;9776;50.798;6.430;2023-01-31T12:23:01;2.10;;;1.90;;
19285;SDS011;9776;50.798;6.430;2023-01-31T12:25:47;1.98;;;1.80;;
19285;SDS011;9776;50.798;6.430;2023-01-31T12:28:31;1.92;;;1.83;;
19285;SDS011;9776;50.798;6.430;2023-01-31T12:31:24;4.07;;;3.40;;
19285;SDS011;9776;50.798;6.430;2023-01-31T12:34:09;2.40;;;2.20;;
19285;SDS011;9776;50.798;6.430;2023-01-31T12:36:55;2.00;;;1.85;;
19285;SDS011;9776;50.798;6.430;2023-01-31T12:39:42;2.15;;;1.95;;
19285;SDS011;9776;50.798;6.430;2023-01-31T12:42:25;5.32;;;4.93;;
19285;SDS011;9776;50.798;6.430;2023-01-31T12:45:07;1.88;;;1.77;;
19285;SDS011;9776;50.798;6.430;2023-01-31T12:47:54;2.50;;;2.13;;
19285;SDS011;9776;50.798;6.430;2023-01-31T12:50:32;2.25;;;2.05;;
19285;SDS011;9776;50.798;6.430;2023-01-31T12:53:10;2.42;;;2.22;;
19285;SDS011;9776;50.798;6.430;2023-01-31T12:55:49;2.63;;;2.28;;
19285;SDS011;9776;50.798;6.430;2023-01-31T12:58:33;2.42;;;2.22;;
19285;SDS011;9776;50.798;6.430;2023-01-31T13:01:06;3.40;;;3.03;;
19285;SDS011;9776;50.798;6.430;2023-01-31T13:03:41;1.90;;;1.80;;
19285;SDS011;9776;50.798;6.430;2023-01-31T13:06:21;2.28;;;2.08;;
19285;SDS011;9776;50.798;6.430;2023-01-31T13:08:50;3.08;;;2.53;;
19285;SDS011;9776;50.798;6.430;2023-01-31T13:11:23;2.33;;;2.13;;
19285;SDS011;9776;50.798;6.430;2023-01-31T13:13:54;2.47;;;2.28;;
19285;SDS011;9776;50.798;6.430;2023-01-31T13:16:25;2.65;;;2.45;;
19285;SDS011;9776;50.798;6.430;2023-01-31T13:18:56;2.85;;;2.55;;
19285;SDS011;9776;50.798;6.430;2023-01-31T13:21:28;2.83;;;2.63;;
19285;SDS011;9776;50.798;6.430;2023-01-31T13:23:59;3.00;;;2.80;;
19285;SDS011;9776;50.798;6.430;2023-01-31T13:26:32;3.15;;;2.95;;
19285;SDS011;9776;50.798;6.430;2023-01-31T13:29:03;2.80;;;2.60;;
19285;SDS011;9776;50.798;6.430;2023-01-31T13:31:36;2.95;;;2.70;;
19285;SDS011;9776;50.798;6.430;2023-01-31T13:34:11;3.42;;;2.88;;
19285;SDS011;9776;50.798;6.430;2023-01-31T13:36:43;2.80;;;2.60;;
19285;SDS011;9776;50.798;6.430;2023-01-31T13:39:13;3.05;;;2.85;;
19285;SDS011;9776;50.798;6.430;2023-01-31T13:41:49;3.13;;;2.92;;
19285;SDS011;9776;50.798;6.430;2023-01-31T13:44:16;3.05;;;2.83;;
19285;SDS011;9776;50.798;6.430;2023-01-31T13:46:46;2.65;;;2.45;;
19285;SDS011;9776;50.798;6.430;2023-01-31T13:49:17;3.33;;;3.05;;
19285;SDS011;9776;50.798;6.430;2023-01-31T13:51:49;3.33;;;2.95;;
19285;SDS011;9776;50.798;6.430;2023-01-31T13:54:20;3.60;;;3.30;;
19285;SDS011;9776;50.798;6.430;2023-01-31T13:56:52;3.53;;;3.22;;
19285;SDS011;9776;50.798;6.430;2023-01-31T13:59:23;2.90;;;2.70;;
19285;SDS011;9776;50.798;6.430;2023-01-31T14:01:52;2.92;;;2.72;;
19285;SDS011;9776;50.798;6.430;2023-01-31T14:04:23;3.17;;;2.95;;
19285;SDS011;9776;50.798;6.430;2023-01-31T14:15:53;3.40;;;3.10;;
19285;SDS011;9776;50.798;6.430;2023-01-31T14:18:34;3.13;;;2.83;;
19285;SDS011;9776;50.798;6.430;2023-01-31T14:24:19;3.42;;;3.15;;
19285;SDS011;9776;50.798;6.430;2023-01-31T14:27:12;3.53;;;3.25;;
19285;SDS011;9776;50.798;6.430;2023-01-31T14:29:43;2.83;;;2.63;;
19285;SDS011;9776;50.798;6.430;2023-01-31T14:32:14;2.85;;;2.65;;
19285;SDS011;9776;50.798;6.430;2023-01-31T14:34:48;3.05;;;2.78;;
19285;SDS011;9776;50.798;6.430;2023-01-31T14:37:17;2.75;;;2.55;;
19285;SDS011;9776;50.798;6.430;2023-01-31T14:39:56;2.70;;;2.50;;
19285;SDS011;9776;50.798;6.430;2023-01-31T14:43:02;2.50;;;2.30;;
19285;SDS011;9776;50.798;6.430;2023-01-31T14:45:42;2.88;;;2.67;;
19285;SDS011;9776;50.798;6.430;2023-01-31T14:48:35;2.55;;;2.45;;
19285;SDS011;9776;50.798;6.430;2023-01-31T14:51:22;2.92;;;2.72;;
19285;SDS011;9776;50.798;6.430;2023-01-31T14:53:58;2.75;;;2.55;;
19285;SDS011;9776;50.798;6.430;2023-01-31T14:56:50;2.60;;;2.40;;
19285;SDS011;9776;50.798;6.430;2023-01-31T14:59:24;2.33;;;2.22;;
19285;SDS011;9776;50.798;6.430;2023-01-31T15:01:54;2.15;;;2.05;;
19285;SDS011;9776;50.798;6.430;2023-01-31T15:04:22;2.85;;;2.65;;
19285;SDS011;9776;50.798;6.430;2023-01-31T15:06:52;2.80;;;2.60;;
19285;SDS011;9776;50.798;6.430;2023-01-31T15:09:25;2.42;;;2.33;;
19285;SDS011;9776;50.798;6.430;2023-01-31T15:12:01;3.13;;;2.30;;
19285;SDS011;9776;50.798;6.430;2023-01-31T15:14:35;2.20;;;2.10;;
19285;SDS011;9776;50.798;6.430;2023-01-31T15:17:10;2.33;;;2.22;;
19285;SDS011;9776;50.798;6.430;2023-01-31T15:19:41;2.40;;;2.20;;
19285;SDS011;9776;50.798;6.430;2023-01-31T15:22:12;2.50;;;2.40;;
19285;SDS011;9776;50.798;6.430;2023-01-31T15:24:43;3.05;;;2.85;;
19285;SDS011;9776;50.798;6.430;2023-01-31T15:27:13;2.90;;;2.70;;
19285;SDS011;9776;50.798;6.430;2023-01-31T15:29:48;2.78;;;2.58;;
19285;SDS011;9776;50.798;6.430;2023-01-31T15:32:21;2.67;;;2.55;;
19285;SDS011;9776;50.798;6.430;2023-01-31T15:34:52;2.50;;;2.40;;
19285;SDS011;9776;50.798;6.430;2023-01-31T15:37:22;2.72;;;2.63;;
19285;SDS011;9776;50.798;6.430;2023-01-31T15:39:54;2.72;;;2.63;;
19285;SDS011;9776;50.798;6.430;2023-01-31T15:42:26;2.80;;;2.60;;
19285;SDS011;9776;50.798;6.430;2023-01-31T15:47:56;2.65;;;2.55;;